sensor_id;sensor_type;location;lat;lon;timestamp;P1;durP1;ratioP1;P2;durP2;ratioP2
40981;SDS011;26708;50.304;19.028;2022-09-29T00:01:03;10.90;;;4.57;;
40981;SDS011;26708;50.304;19.028;2022-09-29T00:04:06;12.95;;;6.47;;
40981;SDS011;26708;50.304;19.028;2022-09-29T00:07:09;12.57;;;8.40;;
40981;SDS011;26708;50.304;19.028;2022-09-29T00:10:10;9.40;;;6.13;;
40981;SDS011;26708;50.304;19.028;2022-09-29T00:13:12;8.68;;;4.78;;
40981;SDS011;26708;50.304;19.028;2022-09-29T00:16:14;9.43;;;4.50;;
40981;SDS011;26708;50.304;19.028;2022-09-29T00:19:15;8.85;;;5.07;;
40981;SDS011;26708;50.304;19.028;2022-09-29T00:22:16;7.70;;;3.90;;
40981;SDS011;26708;50.304;19.028;2022-09-29T00:25:20;9.13;;;4.20;;
40981;SDS011;26708;50.304;19.028;2022-09-29T00:28:21;9.32;;;4.22;;
40981;SDS011;26708;50.304;19.028;2022-09-29T00:31:26;8.50;;;4.70;;
40981;SDS011;26708;50.304;19.028;2022-09-29T00:34:30;8.18;;;4.95;;
40981;SDS011;26708;50.304;19.028;2022-09-29T00:37:31;7.10;;;4.00;;
40981;SDS011;26708;50.304;19.028;2022-09-29T00:47:13;9.90;;;4.68;;
40981;SDS011;26708;50.304;19.028;2022-09-29T00:50:21;8.80;;;4.15;;
40981;SDS011;26708;50.304;19.028;2022-09-29T00:53:26;9.52;;;4.30;;
40981;SDS011;26708;50.304;19.028;2022-09-29T00:56:29;10.45;;;4.00;;
40981;SDS011;26708;50.304;19.028;2022-09-29T00:59:31;8.32;;;4.03;;
40981;SDS011;26708;50.304;19.028;2022-09-29T01:02:41;9.27;;;4.10;;
40981;SDS011;26708;50.304;19.028;2022-09-29T01:05:51;8.93;;;4.53;;
40981;SDS011;26708;50.304;19.028;2022-09-29T01:09:00;8.43;;;3.95;;
40981;SDS011;26708;50.304;19.028;2022-09-29T01:12:03;11.82;;;4.38;;
40981;SDS011;26708;50.304;19.028;2022-09-29T01:15:08;9.68;;;4.60;;
40981;SDS011;26708;50.304;19.028;2022-09-29T01:18:09;9.43;;;4.20;;
40981;SDS011;26708;50.304;19.028;2022-09-29T01:21:17;9.25;;;4.13;;
40981;SDS011;26708;50.304;19.028;2022-09-29T01:38:06;10.65;;;3.95;;
40981;SDS011;26708;50.304;19.028;2022-09-29T01:41:46;6.07;;;3.85;;
40981;SDS011;26708;50.304;19.028;2022-09-29T01:44:56;8.98;;;3.90;;
40981;SDS011;26708;50.304;19.028;2022-09-29T01:48:06;7.03;;;3.85;;
40981;SDS011;26708;50.304;19.028;2022-09-29T01:51:12;7.82;;;3.63;;
40981;SDS011;26708;50.304;19.028;2022-09-29T01:54:24;9.45;;;4.53;;
40981;SDS011;26708;50.304;19.028;2022-09-29T01:58:04;9.95;;;4.30;;
40981;SDS011;26708;50.304;19.028;2022-09-29T02:01:09;6.60;;;4.32;;
40981;SDS011;26708;50.304;19.028;2022-09-29T02:04:15;6.00;;;4.00;;
40981;SDS011;26708;50.304;19.028;2022-09-29T02:07:23;9.13;;;4.57;;
40981;SDS011;26708;50.304;19.028;2022-09-29T02:10:36;7.97;;;4.32;;
40981;SDS011;26708;50.304;19.028;2022-09-29T02:17:14;10.05;;;4.82;;
40981;SDS011;26708;50.304;19.028;2022-09-29T02:20:21;9.93;;;4.38;;
40981;SDS011;26708;50.304;19.028;2022-09-29T02:23:24;7.28;;;4.50;;
40981;SDS011;26708;50.304;19.028;2022-09-29T02:26:25;13.27;;;4.80;;
40981;SDS011;26708;50.304;19.028;2022-09-29T02:29:31;5.90;;;4.25;;
40981;SDS011;26708;50.304;19.028;2022-09-29T02:32:36;7.70;;;4.50;;
40981;SDS011;26708;50.304;19.028;2022-09-29T02:35:44;4.88;;;3.63;;
40981;SDS011;26708;50.304;19.028;2022-09-29T02:39:04;5.93;;;3.42;;
40981;SDS011;26708;50.304;19.028;2022-09-29T02:46:23;5.65;;;3.53;;
40981;SDS011;26708;50.304;19.028;2022-09-29T02:49:24;8.50;;;4.28;;
40981;SDS011;26708;50.304;19.028;2022-09-29T02:52:45;7.18;;;3.83;;
40981;SDS011;26708;50.304;19.028;2022-09-29T02:59:20;8.73;;;4.55;;
40981;SDS011;26708;50.304;19.028;2022-09-29T03:02:26;8.75;;;4.47;;
40981;SDS011;26708;50.304;19.028;2022-09-29T03:05:27;8.95;;;4.03;;
40981;SDS011;26708;50.304;19.028;2022-09-29T03:08:31;7.45;;;4.00;;
40981;SDS011;26708;50.304;19.028;2022-09-29T03:11:33;8.75;;;4.43;;
40981;SDS011;26708;50.304;19.028;2022-09-29T03:14:34;7.05;;;3.75;;
40981;SDS011;26708;50.304;19.028;2022-09-29T03:17:35;12.95;;;4.32;;
40981;SDS011;26708;50.304;19.028;2022-09-29T03:20:35;8.27;;;3.83;;
40981;SDS011;26708;50.304;19.028;2022-09-29T03:23:36;7.68;;;4.10;;
40981;SDS011;26708;50.304;19.028;2022-09-29T03:26:37;6.78;;;3.40;;
40981;SDS011;26708;50.304;19.028;2022-09-29T03:29:41;6.90;;;4.05;;
40981;SDS011;26708;50.304;19.028;2022-09-29T03:32:43;7.70;;;3.85;;
40981;SDS011;26708;50.304;19.028;2022-09-29T03:35:44;8.20;;;4.53;;
40981;SDS011;26708;50.304;19.028;2022-09-29T03:38:47;7.63;;;4.53;;
40981;SDS011;26708;50.304;19.028;2022-09-29T03:44:52;10.23;;;3.85;;
40981;SDS011;26708;50.304;19.028;2022-09-29T03:47:52;7.82;;;4.43;;
40981;SDS011;26708;50.304;19.028;2022-09-29T03:50:53;7.90;;;4.15;;
40981;SDS011;26708;50.304;19.028;2022-09-29T03:53:55;7.82;;;4.85;;
40981;SDS011;26708;50.304;19.028;2022-09-29T03:56:55;7.85;;;3.97;;
40981;SDS011;26708;50.304;19.028;2022-09-29T03:59:57;6.90;;;4.35;;
40981;SDS011;26708;50.304;19.028;2022-09-29T04:02:58;8.18;;;4.78;;
40981;SDS011;26708;50.304;19.028;2022-09-29T04:06:02;10.02;;;5.32;;
40981;SDS011;26708;50.304;19.028;2022-09-29T04:09:04;8.90;;;4.55;;
40981;SDS011;26708;50.304;19.028;2022-09-29T04:12:05;8.43;;;4.65;;
40981;SDS011;26708;50.304;19.028;2022-09-29T04:15:06;11.13;;;4.78;;
40981;SDS011;26708;50.304;19.028;2022-09-29T04:18:07;9.40;;;5.68;;
40981;SDS011;26708;50.304;19.028;2022-09-29T04:21:10;13.85;;;7.25;;
40981;SDS011;26708;50.304;19.028;2022-09-29T04:24:11;11.13;;;6.55;;
40981;SDS011;26708;50.304;19.028;2022-09-29T04:27:14;9.95;;;5.20;;
40981;SDS011;26708;50.304;19.028;2022-09-29T04:30:16;10.68;;;5.47;;
40981;SDS011;26708;50.304;19.028;2022-09-29T04:33:18;15.57;;;5.95;;
40981;SDS011;26708;50.304;19.028;2022-09-29T04:36:21;10.57;;;5.25;;
40981;SDS011;26708;50.304;19.028;2022-09-29T04:39:23;9.18;;;4.95;;
40981;SDS011;26708;50.304;19.028;2022-09-29T04:42:24;10.55;;;5.35;;
40981;SDS011;26708;50.304;19.028;2022-09-29T04:45:25;21.63;;;9.88;;
40981;SDS011;26708;50.304;19.028;2022-09-29T04:48:25;12.07;;;6.18;;
40981;SDS011;26708;50.304;19.028;2022-09-29T04:51:26;13.93;;;6.40;;
40981;SDS011;26708;50.304;19.028;2022-09-29T04:54:35;14.70;;;5.82;;
40981;SDS011;26708;50.304;19.028;2022-09-29T04:57:47;8.57;;;5.45;;
40981;SDS011;26708;50.304;19.028;2022-09-29T05:00:48;10.02;;;5.75;;
40981;SDS011;26708;50.304;19.028;2022-09-29T05:03:49;13.93;;;6.28;;
40981;SDS011;26708;50.304;19.028;2022-09-29T05:06:50;11.18;;;6.18;;
40981;SDS011;26708;50.304;19.028;2022-09-29T05:09:51;8.35;;;5.30;;
40981;SDS011;26708;50.304;19.028;2022-09-29T05:12:51;16.55;;;6.50;;
40981;SDS011;26708;50.304;19.028;2022-09-29T05:15:55;11.77;;;6.22;;
40981;SDS011;26708;50.304;19.028;2022-09-29T05:18:56;11.10;;;6.50;;
40981;SDS011;26708;50.304;19.028;2022-09-29T05:21:57;12.50;;;6.93;;
40981;SDS011;26708;50.304;19.028;2022-09-29T05:24:58;15.20;;;6.63;;
40981;SDS011;26708;50.304;19.028;2022-09-29T05:27:59;19.90;;;7.80;;
40981;SDS011;26708;50.304;19.028;2022-09-29T05:31:18;13.15;;;7.25;;
40981;SDS011;26708;50.304;19.028;2022-09-29T05:34:38;15.85;;;7.05;;
40981;SDS011;26708;50.304;19.028;2022-09-29T05:37:39;16.08;;;7.70;;
40981;SDS011;26708;50.304;19.028;2022-09-29T05:40:39;14.45;;;7.35;;
40981;SDS011;26708;50.304;19.028;2022-09-29T05:43:40;12.73;;;7.50;;
40981;SDS011;26708;50.304;19.028;2022-09-29T05:46:41;11.50;;;6.50;;
40981;SDS011;26708;50.304;19.028;2022-09-29T05:49:42;13.05;;;6.60;;
40981;SDS011;26708;50.304;19.028;2022-09-29T05:52:42;10.07;;;6.22;;
40981;SDS011;26708;50.304;19.028;2022-09-29T05:55:43;18.35;;;6.40;;
40981;SDS011;26708;50.304;19.028;2022-09-29T05:58:44;22.63;;;7.00;;
40981;SDS011;26708;50.304;19.028;2022-09-29T06:01:45;22.33;;;7.43;;
40981;SDS011;26708;50.304;19.028;2022-09-29T06:04:45;13.00;;;7.43;;
40981;SDS011;26708;50.304;19.028;2022-09-29T06:07:46;20.17;;;8.95;;
40981;SDS011;26708;50.304;19.028;2022-09-29T06:10:47;28.58;;;11.98;;
40981;SDS011;26708;50.304;19.028;2022-09-29T06:13:48;25.77;;;10.85;;
40981;SDS011;26708;50.304;19.028;2022-09-29T06:16:50;24.95;;;10.93;;
40981;SDS011;26708;50.304;19.028;2022-09-29T06:19:51;37.25;;;14.73;;
40981;SDS011;26708;50.304;19.028;2022-09-29T06:22:53;54.67;;;21.67;;
40981;SDS011;26708;50.304;19.028;2022-09-29T06:25:55;23.88;;;11.90;;
40981;SDS011;26708;50.304;19.028;2022-09-29T06:29:01;19.88;;;10.60;;
40981;SDS011;26708;50.304;19.028;2022-09-29T06:32:03;9.45;;;6.20;;
40981;SDS011;26708;50.304;19.028;2022-09-29T06:35:04;9.32;;;5.53;;
40981;SDS011;26708;50.304;19.028;2022-09-29T06:38:24;18.15;;;8.32;;
40981;SDS011;26708;50.304;19.028;2022-09-29T06:41:24;16.67;;;8.85;;
40981;SDS011;26708;50.304;19.028;2022-09-29T06:44:26;13.82;;;8.40;;
40981;SDS011;26708;50.304;19.028;2022-09-29T06:47:29;10.90;;;6.68;;
40981;SDS011;26708;50.304;19.028;2022-09-29T06:50:30;15.75;;;8.18;;
40981;SDS011;26708;50.304;19.028;2022-09-29T06:53:31;13.30;;;5.70;;
40981;SDS011;26708;50.304;19.028;2022-09-29T06:56:31;12.80;;;5.93;;
40981;SDS011;26708;50.304;19.028;2022-09-29T06:59:32;22.15;;;7.10;;
40981;SDS011;26708;50.304;19.028;2022-09-29T07:02:33;10.77;;;6.20;;
40981;SDS011;26708;50.304;19.028;2022-09-29T07:05:33;10.32;;;6.15;;
40981;SDS011;26708;50.304;19.028;2022-09-29T07:08:34;12.15;;;7.60;;
40981;SDS011;26708;50.304;19.028;2022-09-29T07:11:37;17.67;;;8.10;;
40981;SDS011;26708;50.304;19.028;2022-09-29T07:14:39;12.82;;;7.38;;
40981;SDS011;26708;50.304;19.028;2022-09-29T07:17:40;10.70;;;6.93;;
40981;SDS011;26708;50.304;19.028;2022-09-29T07:20:41;15.27;;;8.13;;
40981;SDS011;26708;50.304;19.028;2022-09-29T07:23:42;14.00;;;6.15;;
40981;SDS011;26708;50.304;19.028;2022-09-29T07:26:43;12.90;;;6.97;;
40981;SDS011;26708;50.304;19.028;2022-09-29T07:29:44;14.30;;;8.32;;
40981;SDS011;26708;50.304;19.028;2022-09-29T07:32:44;14.32;;;8.73;;
40981;SDS011;26708;50.304;19.028;2022-09-29T07:35:45;13.50;;;7.95;;
40981;SDS011;26708;50.304;19.028;2022-09-29T07:38:52;14.57;;;7.57;;
40981;SDS011;26708;50.304;19.028;2022-09-29T07:41:53;18.58;;;7.60;;
40981;SDS011;26708;50.304;19.028;2022-09-29T07:44:55;14.77;;;7.55;;
40981;SDS011;26708;50.304;19.028;2022-09-29T07:47:56;12.25;;;7.30;;
40981;SDS011;26708;50.304;19.028;2022-09-29T07:51:04;13.13;;;7.40;;
40981;SDS011;26708;50.304;19.028;2022-09-29T07:54:06;15.25;;;8.23;;
40981;SDS011;26708;50.304;19.028;2022-09-29T07:57:07;20.08;;;8.52;;
40981;SDS011;26708;50.304;19.028;2022-09-29T08:00:08;14.68;;;7.68;;
40981;SDS011;26708;50.304;19.028;2022-09-29T08:03:14;19.30;;;10.85;;
40981;SDS011;26708;50.304;19.028;2022-09-29T08:06:15;13.75;;;8.23;;
40981;SDS011;26708;50.304;19.028;2022-09-29T08:09:16;14.73;;;8.18;;
40981;SDS011;26708;50.304;19.028;2022-09-29T08:12:16;10.43;;;7.28;;
40981;SDS011;26708;50.304;19.028;2022-09-29T08:15:19;13.75;;;7.57;;
40981;SDS011;26708;50.304;19.028;2022-09-29T08:18:20;23.73;;;14.13;;
40981;SDS011;26708;50.304;19.028;2022-09-29T08:21:21;19.15;;;9.30;;
40981;SDS011;26708;50.304;19.028;2022-09-29T08:24:22;13.00;;;6.50;;
40981;SDS011;26708;50.304;19.028;2022-09-29T08:27:24;13.55;;;6.55;;
40981;SDS011;26708;50.304;19.028;2022-09-29T08:30:25;15.60;;;8.20;;
40981;SDS011;26708;50.304;19.028;2022-09-29T08:33:25;14.05;;;6.80;;
40981;SDS011;26708;50.304;19.028;2022-09-29T08:36:26;12.48;;;7.55;;
40981;SDS011;26708;50.304;19.028;2022-09-29T08:39:27;9.68;;;6.43;;
40981;SDS011;26708;50.304;19.028;2022-09-29T08:42:42;19.02;;;8.20;;
40981;SDS011;26708;50.304;19.028;2022-09-29T08:45:56;13.18;;;7.20;;
40981;SDS011;26708;50.304;19.028;2022-09-29T08:49:04;14.93;;;7.20;;
40981;SDS011;26708;50.304;19.028;2022-09-29T08:52:12;14.50;;;6.25;;
40981;SDS011;26708;50.304;19.028;2022-09-29T08:58:18;10.40;;;6.10;;
40981;SDS011;26708;50.304;19.028;2022-09-29T09:01:28;8.88;;;5.50;;
40981;SDS011;26708;50.304;19.028;2022-09-29T09:18:18;15.45;;;8.68;;
40981;SDS011;26708;50.304;19.028;2022-09-29T09:21:43;15.93;;;9.02;;
40981;SDS011;26708;50.304;19.028;2022-09-29T09:31:20;11.45;;;8.02;;
40981;SDS011;26708;50.304;19.028;2022-09-29T09:34:28;13.65;;;8.10;;
40981;SDS011;26708;50.304;19.028;2022-09-29T09:37:33;12.40;;;7.60;;
40981;SDS011;26708;50.304;19.028;2022-09-29T09:40:39;13.95;;;7.65;;
40981;SDS011;26708;50.304;19.028;2022-09-29T09:43:45;12.30;;;7.13;;
40981;SDS011;26708;50.304;19.028;2022-09-29T09:50:00;12.32;;;6.60;;
40981;SDS011;26708;50.304;19.028;2022-09-29T09:53:25;19.15;;;6.95;;
40981;SDS011;26708;50.304;19.028;2022-09-29T10:00:22;18.98;;;7.60;;
40981;SDS011;26708;50.304;19.028;2022-09-29T10:03:38;11.98;;;5.85;;
40981;SDS011;26708;50.304;19.028;2022-09-29T10:06:39;7.68;;;3.97;;
40981;SDS011;26708;50.304;19.028;2022-09-29T10:09:41;6.88;;;3.97;;
40981;SDS011;26708;50.304;19.028;2022-09-29T10:12:42;5.18;;;3.47;;
40981;SDS011;26708;50.304;19.028;2022-09-29T10:15:51;7.55;;;4.68;;
40981;SDS011;26708;50.304;19.028;2022-09-29T10:18:56;7.43;;;3.90;;
40981;SDS011;26708;50.304;19.028;2022-09-29T10:21:57;6.97;;;3.85;;
40981;SDS011;26708;50.304;19.028;2022-09-29T10:28:13;8.52;;;3.97;;
40981;SDS011;26708;50.304;19.028;2022-09-29T10:31:18;5.30;;;3.58;;
40981;SDS011;26708;50.304;19.028;2022-09-29T10:34:22;8.57;;;4.15;;
40981;SDS011;26708;50.304;19.028;2022-09-29T10:40:53;4.85;;;3.20;;
40981;SDS011;26708;50.304;19.028;2022-09-29T10:43:57;7.70;;;3.22;;
40981;SDS011;26708;50.304;19.028;2022-09-29T10:47:20;6.03;;;3.25;;
40981;SDS011;26708;50.304;19.028;2022-09-29T10:56:35;4.88;;;2.95;;
40981;SDS011;26708;50.304;19.028;2022-09-29T10:59:43;10.75;;;4.00;;
40981;SDS011;26708;50.304;19.028;2022-09-29T11:02:46;9.23;;;4.22;;
40981;SDS011;26708;50.304;19.028;2022-09-29T11:05:55;9.45;;;4.18;;
40981;SDS011;26708;50.304;19.028;2022-09-29T11:12:00;5.78;;;2.80;;
40981;SDS011;26708;50.304;19.028;2022-09-29T11:15:06;4.22;;;2.13;;
40981;SDS011;26708;50.304;19.028;2022-09-29T11:18:24;8.27;;;2.55;;
40981;SDS011;26708;50.304;19.028;2022-09-29T11:28:04;3.58;;;1.83;;
40981;SDS011;26708;50.304;19.028;2022-09-29T11:34:35;6.70;;;3.90;;
40981;SDS011;26708;50.304;19.028;2022-09-29T11:58:42;4.70;;;2.20;;
40981;SDS011;26708;50.304;19.028;2022-09-29T12:09:05;6.45;;;2.33;;
40981;SDS011;26708;50.304;19.028;2022-09-29T12:12:13;3.00;;;1.90;;
40981;SDS011;26708;50.304;19.028;2022-09-29T12:18:41;4.97;;;2.08;;
40981;SDS011;26708;50.304;19.028;2022-09-29T12:21:50;2.75;;;1.80;;
40981;SDS011;26708;50.304;19.028;2022-09-29T12:24:53;8.00;;;2.67;;
40981;SDS011;26708;50.304;19.028;2022-09-29T12:27:58;2.75;;;2.00;;
40981;SDS011;26708;50.304;19.028;2022-09-29T12:31:03;6.57;;;2.22;;
40981;SDS011;26708;50.304;19.028;2022-09-29T12:34:12;3.75;;;2.08;;
40981;SDS011;26708;50.304;19.028;2022-09-29T12:37:26;3.25;;;1.83;;
40981;SDS011;26708;50.304;19.028;2022-09-29T12:40:37;10.88;;;5.38;;
40981;SDS011;26708;50.304;19.028;2022-09-29T12:43:42;3.40;;;2.33;;
40981;SDS011;26708;50.304;19.028;2022-09-29T12:46:52;7.00;;;2.92;;
40981;SDS011;26708;50.304;19.028;2022-09-29T12:50:14;7.32;;;2.70;;
40981;SDS011;26708;50.304;19.028;2022-09-29T12:53:23;4.90;;;2.28;;
40981;SDS011;26708;50.304;19.028;2022-09-29T12:56:47;5.95;;;3.20;;
40981;SDS011;26708;50.304;19.028;2022-09-29T12:59:57;5.20;;;2.70;;
40981;SDS011;26708;50.304;19.028;2022-09-29T13:03:26;6.18;;;2.88;;
40981;SDS011;26708;50.304;19.028;2022-09-29T13:06:54;5.38;;;2.17;;
40981;SDS011;26708;50.304;19.028;2022-09-29T13:13:41;3.17;;;1.88;;
40981;SDS011;26708;50.304;19.028;2022-09-29T13:17:07;3.10;;;1.95;;
40981;SDS011;26708;50.304;19.028;2022-09-29T13:27:18;4.00;;;1.38;;
40981;SDS011;26708;50.304;19.028;2022-09-29T13:30:26;4.90;;;2.10;;
40981;SDS011;26708;50.304;19.028;2022-09-29T13:33:31;6.70;;;3.50;;
40981;SDS011;26708;50.304;19.028;2022-09-29T13:36:33;4.80;;;2.55;;
40981;SDS011;26708;50.304;19.028;2022-09-29T13:39:39;6.72;;;3.60;;
40981;SDS011;26708;50.304;19.028;2022-09-29T13:42:43;6.35;;;2.95;;
40981;SDS011;26708;50.304;19.028;2022-09-29T13:45:44;4.68;;;2.38;;
40981;SDS011;26708;50.304;19.028;2022-09-29T13:48:46;7.72;;;3.50;;
40981;SDS011;26708;50.304;19.028;2022-09-29T13:55:47;5.70;;;2.50;;
40981;SDS011;26708;50.304;19.028;2022-09-29T13:58:58;3.22;;;2.10;;
40981;SDS011;26708;50.304;19.028;2022-09-29T14:02:01;6.10;;;2.03;;
40981;SDS011;26708;50.304;19.028;2022-09-29T14:12:19;2.88;;;1.80;;
40981;SDS011;26708;50.304;19.028;2022-09-29T14:15:27;5.95;;;3.08;;
40981;SDS011;26708;50.304;19.028;2022-09-29T14:18:35;6.45;;;2.40;;
40981;SDS011;26708;50.304;19.028;2022-09-29T14:21:55;5.95;;;2.80;;
40981;SDS011;26708;50.304;19.028;2022-09-29T14:28:27;8.40;;;3.35;;
40981;SDS011;26708;50.304;19.028;2022-09-29T14:31:36;4.63;;;2.70;;
40981;SDS011;26708;50.304;19.028;2022-09-29T14:34:38;4.13;;;2.67;;
40981;SDS011;26708;50.304;19.028;2022-09-29T14:37:39;7.65;;;2.78;;
40981;SDS011;26708;50.304;19.028;2022-09-29T14:44:21;4.45;;;1.88;;
40981;SDS011;26708;50.304;19.028;2022-09-29T15:01:22;3.97;;;2.38;;
40981;SDS011;26708;50.304;19.028;2022-09-29T15:04:27;3.42;;;2.03;;
40981;SDS011;26708;50.304;19.028;2022-09-29T15:07:28;6.32;;;3.10;;
40981;SDS011;26708;50.304;19.028;2022-09-29T15:10:30;6.57;;;2.50;;
40981;SDS011;26708;50.304;19.028;2022-09-29T15:13:39;3.30;;;2.38;;
40981;SDS011;26708;50.304;19.028;2022-09-29T15:16:44;4.65;;;2.05;;
40981;SDS011;26708;50.304;19.028;2022-09-29T15:23:28;4.78;;;3.33;;
40981;SDS011;26708;50.304;19.028;2022-09-29T15:26:45;8.63;;;4.90;;
40981;SDS011;26708;50.304;19.028;2022-09-29T15:29:46;10.48;;;5.70;;
40981;SDS011;26708;50.304;19.028;2022-09-29T15:32:48;8.45;;;4.97;;
40981;SDS011;26708;50.304;19.028;2022-09-29T15:35:52;8.20;;;4.50;;
40981;SDS011;26708;50.304;19.028;2022-09-29T15:39:00;12.57;;;6.10;;
40981;SDS011;26708;50.304;19.028;2022-09-29T15:42:12;14.00;;;6.65;;
40981;SDS011;26708;50.304;19.028;2022-09-29T15:45:17;11.18;;;6.80;;
40981;SDS011;26708;50.304;19.028;2022-09-29T15:48:25;13.32;;;6.75;;
40981;SDS011;26708;50.304;19.028;2022-09-29T15:51:27;9.45;;;4.90;;
40981;SDS011;26708;50.304;19.028;2022-09-29T15:54:29;13.00;;;6.82;;
40981;SDS011;26708;50.304;19.028;2022-09-29T15:57:43;14.57;;;7.30;;
40981;SDS011;26708;50.304;19.028;2022-09-29T16:00:59;19.58;;;7.38;;
40981;SDS011;26708;50.304;19.028;2022-09-29T16:04:06;18.33;;;8.52;;
40981;SDS011;26708;50.304;19.028;2022-09-29T16:07:15;14.18;;;7.45;;
40981;SDS011;26708;50.304;19.028;2022-09-29T16:10:26;20.77;;;9.63;;
40981;SDS011;26708;50.304;19.028;2022-09-29T16:13:30;13.52;;;7.88;;
40981;SDS011;26708;50.304;19.028;2022-09-29T16:16:39;16.15;;;9.25;;
40981;SDS011;26708;50.304;19.028;2022-09-29T16:19:43;23.77;;;9.82;;
40981;SDS011;26708;50.304;19.028;2022-09-29T16:22:50;29.90;;;11.88;;
40981;SDS011;26708;50.304;19.028;2022-09-29T16:26:13;34.67;;;15.30;;
40981;SDS011;26708;50.304;19.028;2022-09-29T16:35:36;21.52;;;10.00;;
40981;SDS011;26708;50.304;19.028;2022-09-29T16:38:43;21.05;;;9.40;;
40981;SDS011;26708;50.304;19.028;2022-09-29T16:41:48;23.63;;;11.82;;
40981;SDS011;26708;50.304;19.028;2022-09-29T16:44:51;21.92;;;12.52;;
40981;SDS011;26708;50.304;19.028;2022-09-29T16:47:54;27.35;;;11.82;;
40981;SDS011;26708;50.304;19.028;2022-09-29T16:50:55;28.42;;;14.35;;
40981;SDS011;26708;50.304;19.028;2022-09-29T16:53:59;30.40;;;12.73;;
40981;SDS011;26708;50.304;19.028;2022-09-29T17:00:29;42.72;;;17.42;;
40981;SDS011;26708;50.304;19.028;2022-09-29T17:03:33;49.95;;;19.80;;
40981;SDS011;26708;50.304;19.028;2022-09-29T17:06:35;51.58;;;21.55;;
40981;SDS011;26708;50.304;19.028;2022-09-29T17:09:47;61.63;;;23.08;;
40981;SDS011;26708;50.304;19.028;2022-09-29T17:12:50;47.75;;;21.08;;
40981;SDS011;26708;50.304;19.028;2022-09-29T17:15:51;52.60;;;20.70;;
40981;SDS011;26708;50.304;19.028;2022-09-29T17:18:53;42.75;;;21.50;;
40981;SDS011;26708;50.304;19.028;2022-09-29T17:21:58;49.08;;;22.88;;
40981;SDS011;26708;50.304;19.028;2022-09-29T17:29:24;55.15;;;24.75;;
40981;SDS011;26708;50.304;19.028;2022-09-29T17:32:28;55.47;;;25.10;;
40981;SDS011;26708;50.304;19.028;2022-09-29T17:35:50;51.42;;;23.05;;
40981;SDS011;26708;50.304;19.028;2022-09-29T17:38:52;50.75;;;23.80;;
40981;SDS011;26708;50.304;19.028;2022-09-29T17:41:53;37.90;;;18.95;;
40981;SDS011;26708;50.304;19.028;2022-09-29T17:44:54;36.85;;;19.20;;
40981;SDS011;26708;50.304;19.028;2022-09-29T17:47:55;33.85;;;16.45;;
40981;SDS011;26708;50.304;19.028;2022-09-29T17:50:56;40.50;;;19.52;;
40981;SDS011;26708;50.304;19.028;2022-09-29T17:54:06;45.85;;;21.67;;
40981;SDS011;26708;50.304;19.028;2022-09-29T17:57:09;46.85;;;23.30;;
40981;SDS011;26708;50.304;19.028;2022-09-29T18:00:22;39.60;;;23.08;;
40981;SDS011;26708;50.304;19.028;2022-09-29T18:03:25;41.85;;;22.70;;
40981;SDS011;26708;50.304;19.028;2022-09-29T18:06:28;37.88;;;19.25;;
40981;SDS011;26708;50.304;19.028;2022-09-29T18:09:32;37.33;;;19.67;;
40981;SDS011;26708;50.304;19.028;2022-09-29T18:12:33;40.03;;;20.58;;
40981;SDS011;26708;50.304;19.028;2022-09-29T18:15:34;32.95;;;18.55;;
40981;SDS011;26708;50.304;19.028;2022-09-29T18:18:35;36.42;;;18.90;;
40981;SDS011;26708;50.304;19.028;2022-09-29T18:21:39;26.77;;;13.68;;
40981;SDS011;26708;50.304;19.028;2022-09-29T18:24:40;28.58;;;16.05;;
40981;SDS011;26708;50.304;19.028;2022-09-29T18:27:41;30.33;;;14.80;;
40981;SDS011;26708;50.304;19.028;2022-09-29T18:30:42;35.25;;;15.20;;
40981;SDS011;26708;50.304;19.028;2022-09-29T18:33:46;30.00;;;14.70;;
40981;SDS011;26708;50.304;19.028;2022-09-29T18:36:47;35.80;;;15.93;;
40981;SDS011;26708;50.304;19.028;2022-09-29T18:39:48;37.17;;;17.17;;
40981;SDS011;26708;50.304;19.028;2022-09-29T18:42:49;31.63;;;14.68;;
40981;SDS011;26708;50.304;19.028;2022-09-29T18:45:55;28.02;;;14.52;;
40981;SDS011;26708;50.304;19.028;2022-09-29T18:48:56;36.55;;;14.20;;
40981;SDS011;26708;50.304;19.028;2022-09-29T18:51:57;34.13;;;16.63;;
40981;SDS011;26708;50.304;19.028;2022-09-29T18:54:59;37.05;;;18.67;;
40981;SDS011;26708;50.304;19.028;2022-09-29T18:57:59;41.13;;;22.35;;
40981;SDS011;26708;50.304;19.028;2022-09-29T19:01:01;48.67;;;23.20;;
40981;SDS011;26708;50.304;19.028;2022-09-29T19:04:01;41.80;;;21.27;;
40981;SDS011;26708;50.304;19.028;2022-09-29T19:07:02;48.50;;;23.88;;
40981;SDS011;26708;50.304;19.028;2022-09-29T19:13:40;39.30;;;20.50;;
40981;SDS011;26708;50.304;19.028;2022-09-29T19:16:41;29.17;;;16.17;;
40981;SDS011;26708;50.304;19.028;2022-09-29T19:19:42;28.17;;;15.70;;
40981;SDS011;26708;50.304;19.028;2022-09-29T19:22:43;42.45;;;19.92;;
40981;SDS011;26708;50.304;19.028;2022-09-29T19:25:46;33.30;;;19.27;;
40981;SDS011;26708;50.304;19.028;2022-09-29T19:28:48;37.95;;;19.02;;
40981;SDS011;26708;50.304;19.028;2022-09-29T19:31:49;35.90;;;18.42;;
40981;SDS011;26708;50.304;19.028;2022-09-29T19:34:51;43.35;;;18.45;;
40981;SDS011;26708;50.304;19.028;2022-09-29T19:37:53;32.22;;;16.27;;
40981;SDS011;26708;50.304;19.028;2022-09-29T19:40:57;30.50;;;15.50;;
40981;SDS011;26708;50.304;19.028;2022-09-29T19:43:59;26.95;;;14.50;;
40981;SDS011;26708;50.304;19.028;2022-09-29T19:46:59;29.30;;;15.02;;
40981;SDS011;26708;50.304;19.028;2022-09-29T19:50:00;33.28;;;18.25;;
40981;SDS011;26708;50.304;19.028;2022-09-29T19:53:19;38.63;;;18.42;;
40981;SDS011;26708;50.304;19.028;2022-09-29T19:56:20;40.17;;;19.33;;
40981;SDS011;26708;50.304;19.028;2022-09-29T19:59:25;33.42;;;18.02;;
40981;SDS011;26708;50.304;19.028;2022-09-29T20:02:28;36.78;;;18.92;;
40981;SDS011;26708;50.304;19.028;2022-09-29T20:05:29;41.15;;;18.77;;
40981;SDS011;26708;50.304;19.028;2022-09-29T20:08:30;37.50;;;19.45;;
40981;SDS011;26708;50.304;19.028;2022-09-29T20:11:31;37.30;;;19.27;;
40981;SDS011;26708;50.304;19.028;2022-09-29T20:14:33;47.40;;;22.60;;
40981;SDS011;26708;50.304;19.028;2022-09-29T20:17:37;54.10;;;25.48;;
40981;SDS011;26708;50.304;19.028;2022-09-29T20:20:39;48.42;;;23.45;;
40981;SDS011;26708;50.304;19.028;2022-09-29T20:23:41;54.65;;;24.38;;
40981;SDS011;26708;50.304;19.028;2022-09-29T20:26:43;66.07;;;27.15;;
40981;SDS011;26708;50.304;19.028;2022-09-29T20:29:44;64.60;;;26.38;;
40981;SDS011;26708;50.304;19.028;2022-09-29T20:32:47;51.70;;;22.40;;
40981;SDS011;26708;50.304;19.028;2022-09-29T20:35:48;59.42;;;25.13;;
40981;SDS011;26708;50.304;19.028;2022-09-29T20:38:50;63.65;;;25.65;;
40981;SDS011;26708;50.304;19.028;2022-09-29T20:41:51;67.72;;;28.17;;
40981;SDS011;26708;50.304;19.028;2022-09-29T20:44:53;64.43;;;24.98;;
40981;SDS011;26708;50.304;19.028;2022-09-29T20:47:55;51.55;;;23.00;;
40981;SDS011;26708;50.304;19.028;2022-09-29T20:50:59;54.13;;;23.63;;
40981;SDS011;26708;50.304;19.028;2022-09-29T20:54:11;58.08;;;24.58;;
40981;SDS011;26708;50.304;19.028;2022-09-29T20:57:13;49.28;;;21.33;;
40981;SDS011;26708;50.304;19.028;2022-09-29T21:00:15;46.50;;;20.17;;
40981;SDS011;26708;50.304;19.028;2022-09-29T21:03:16;34.55;;;16.30;;
40981;SDS011;26708;50.304;19.028;2022-09-29T21:06:21;25.30;;;13.73;;
40981;SDS011;26708;50.304;19.028;2022-09-29T21:09:23;28.90;;;13.02;;